Time;durP1;ratioP1;P1;durP2;ratioP2;P2;SDS_P1;SDS_P2;PMS_P1;PMS_P2;Temp;Humidity;BMP_temperature;BMP_pressure;BME280_temperature;BME280_humidity;BME280_pressure;Samples;Min_cycle;Max_cycle;Signal;HPM_P1;HPM_P2
2023/06/03 00:02:21;;;;;;;1.50;0.90;;;22.90;53.20;;;;;;222364;1268;22627;-53
2023/06/03 00:07:26;;;;;;;1.10;1.00;;;22.90;53.10;;;;;;222636;1266;24358;-54
2023/06/03 00:12:30;;;;;;;1.30;1.20;;;22.90;53.10;;;;;;222300;1268;22522;-52
2023/06/03 00:17:34;;;;;;;0.90;0.80;;;22.90;53.10;;;;;;222280;1267;23892;-53
2023/06/03 00:22:39;;;;;;;0.80;0.80;;;22.90;53.10;;;;;;222410;1268;24090;-54
2023/06/03 00:27:44;;;;;;;1.20;1.10;;;22.80;53.10;;;;;;222525;1268;22557;-52
2023/06/03 00:32:49;;;;;;;1.20;1.00;;;22.80;53.00;;;;;;222573;1268;24244;-51
2023/06/03 00:37:57;;;;;;;0.90;0.90;;;22.80;52.90;;;;;;222477;1268;24412;-54
2023/06/03 00:43:01;;;;;;;0.90;0.90;;;22.70;53.00;;;;;;222533;1268;22522;-52
2023/06/03 00:48:06;;;;;;;0.70;0.70;;;22.70;53.10;;;;;;222378;1268;24388;-55
2023/06/03 00:53:10;;;;;;;0.70;0.70;;;22.70;53.10;;;;;;222569;1266;25207;-54
2023/06/03 00:58:14;;;;;;;0.70;0.70;;;22.70;53.00;;;;;;222799;1265;24482;-52
2023/06/03 01:03:19;;;;;;;0.80;0.80;;;22.60;53.10;;;;;;222624;1268;22501;-49
2023/06/03 01:08:31;;;;;;;1.00;1.00;;;22.70;53.10;;;;;;222566;1268;24361;-52
2023/06/03 01:13:47;;;;;;;0.80;0.80;;;22.70;53.10;;;;;;222662;1268;25113;-55
2023/06/03 01:18:52;;;;;;;1.10;0.90;;;22.70;53.10;;;;;;222389;1268;25438;-54
2023/06/03 01:23:56;;;;;;;0.80;0.80;;;22.60;53.00;;;;;;222574;1268;22522;-53
2023/06/03 01:29:00;;;;;;;0.90;0.90;;;22.60;53.40;;;;;;222470;1268;22518;-55
2023/06/03 01:34:05;;;;;;;0.60;0.60;;;22.60;53.10;;;;;;222590;1268;25300;-50
2023/06/03 01:39:11;;;;;;;1.20;1.10;;;22.60;53.10;;;;;;222423;1268;22507;-48
2023/06/03 01:44:15;;;;;;;1.00;1.00;;;22.50;53.40;;;;;;222753;1268;22509;-50
2023/06/03 01:49:19;;;;;;;0.80;0.80;;;22.50;53.50;;;;;;222583;1267;25459;-50
2023/06/03 01:54:27;;;;;;;0.70;0.70;;;22.50;53.20;;;;;;222672;1268;24096;-58
2023/06/03 01:59:31;;;;;;;0.80;0.80;;;22.50;53.20;;;;;;222567;1268;22534;-54
2023/06/03 02:04:36;;;;;;;1.00;0.90;;;22.50;53.60;;;;;;222493;1264;24442;-51
2023/06/03 02:09:40;;;;;;;0.70;0.70;;;22.50;53.20;;;;;;222195;1268;22521;-52
2023/06/03 02:14:44;;;;;;;0.90;0.90;;;22.50;53.00;;;;;;222260;1268;221815;-54
2023/06/03 02:19:49;;;;;;;0.80;0.80;;;22.40;53.10;;;;;;222368;1264;25294;-55
2023/06/03 02:24:57;;;;;;;0.70;0.70;;;22.40;53.00;;;;;;222440;1268;22518;-54
2023/06/03 02:30:04;;;;;;;0.80;0.80;;;22.40;53.10;;;;;;222480;1263;22636;-53
2023/06/03 02:35:09;;;;;;;1.00;0.90;;;22.40;53.10;;;;;;222244;1245;24311;-54
2023/06/03 02:40:14;;;;;;;0.60;0.60;;;22.30;53.10;;;;;;222313;1269;22789;-53
2023/06/03 02:45:19;;;;;;;0.80;0.80;;;22.30;53.10;;;;;;222195;1269;25362;-53
2023/06/03 02:50:23;;;;;;;1.20;1.10;;;22.30;53.00;;;;;;222078;1264;23912;-53
2023/06/03 02:55:27;;;;;;;1.00;0.80;;;22.40;53.10;;;;;;221968;1269;23264;-53
2023/06/03 03:00:32;;;;;;;0.70;0.70;;;22.30;53.00;;;;;;222366;1244;22727;-51
2023/06/03 03:05:36;;;;;;;1.00;1.00;;;22.30;53.00;;;;;;222464;1267;22511;-51
2023/06/03 03:10:41;;;;;;;0.70;0.70;;;22.30;53.00;;;;;;222548;1268;25313;-53
2023/06/03 03:15:46;;;;;;;0.80;0.80;;;22.30;53.10;;;;;;222366;1268;22623;-52
2023/06/03 03:20:51;;;;;;;0.80;0.80;;;22.30;53.40;;;;;;222480;1268;25603;-48
2023/06/03 03:26:00;;;;;;;1.10;0.70;;;22.20;53.10;;;;;;222636;1268;22977;-51
2023/06/03 03:31:06;;;;;;;0.90;0.90;;;22.20;53.40;;;;;;222444;1254;25620;-51
2023/06/03 03:36:20;;;;;;;0.90;0.80;;;22.10;53.00;;;;;;222514;1268;23877;-52
2023/06/03 03:41:25;;;;;;;0.70;0.70;;;22.20;53.00;;;;;;222513;1267;22524;-53
2023/06/03 03:46:30;;;;;;;0.90;0.90;;;22.20;53.40;;;;;;222418;1266;24308;-54
2023/06/03 03:51:35;;;;;;;0.90;0.80;;;22.20;52.90;;;;;;222371;1257;22515;-48
2023/06/03 03:56:40;;;;;;;0.80;0.70;;;22.20;53.30;;;;;;222487;1268;22561;-53
2023/06/03 04:01:44;;;;;;;1.00;0.90;;;22.20;53.00;;;;;;222358;1268;22633;-55
2023/06/03 04:06:54;;;;;;;0.60;0.60;;;22.10;53.00;;;;;;222522;1267;22628;-54
2023/06/03 04:12:01;;;;;;;1.00;0.80;;;22.20;53.30;;;;;;222465;1268;22619;-50
2023/06/03 04:17:08;;;;;;;0.70;0.70;;;22.10;52.90;;;;;;222460;1268;22535;-52
2023/06/03 04:22:20;;;;;;;0.60;0.60;;;22.20;53.20;;;;;;222487;1267;25295;-52
2023/06/03 04:27:25;;;;;;;0.90;0.80;;;22.10;53.00;;;;;;222455;1268;23918;-54
2023/06/03 04:32:30;;;;;;;0.90;0.80;;;22.10;52.90;;;;;;222308;1264;24175;-52
2023/06/03 04:37:35;;;;;;;0.70;0.70;;;22.10;52.80;;;;;;222096;1246;25316;-53
2023/06/03 04:42:41;;;;;;;2.00;0.80;;;22.10;52.90;;;;;;222329;1267;22527;-51
2023/06/03 04:47:47;;;;;;;0.80;0.70;;;22.10;52.80;;;;;;222572;1266;22527;-52
2023/06/03 04:52:51;;;;;;;1.50;0.90;;;22.10;53.10;;;;;;222047;1269;22768;-53
2023/06/03 04:58:00;;;;;;;1.30;1.00;;;22.10;52.80;;;;;;222260;1264;22731;-57
2023/06/03 05:03:08;;;;;;;0.80;0.80;;;22.10;52.80;;;;;;222299;1260;22524;-51
2023/06/03 05:08:15;;;;;;;0.70;0.70;;;22.10;52.80;;;;;;222131;1269;25523;-55
2023/06/03 05:13:20;;;;;;;0.80;0.70;;;22.10;52.60;;;;;;222320;1267;23647;-52
2023/06/03 05:18:25;;;;;;;0.80;0.70;;;22.10;52.60;;;;;;222436;1269;22563;-50
2023/06/03 05:23:30;;;;;;;0.80;0.80;;;22.10;52.90;;;;;;222360;1267;22499;-53
2023/06/03 05:28:35;;;;;;;0.70;0.70;;;22.10;52.60;;;;;;222428;1269;22589;-49
2023/06/03 05:33:41;;;;;;;0.80;0.80;;;22.10;52.50;;;;;;222419;1268;24194;-53
2023/06/03 05:38:52;;;;;;;1.10;0.50;;;22.10;52.50;;;;;;222506;1254;22636;-52
2023/06/03 05:43:57;;;;;;;1.00;0.80;;;22.10;52.40;;;;;;222513;1268;22716;-51
2023/06/03 05:49:02;;;;;;;0.80;0.80;;;22.20;52.40;;;;;;222520;1268;22772;-52
2023/06/03 05:54:07;;;;;;;1.60;0.70;;;22.20;52.50;;;;;;222547;1263;25928;-52
2023/06/03 05:59:11;;;;;;;1.60;0.80;;;22.10;52.40;;;;;;222624;1268;24143;-51
2023/06/03 06:04:18;;;;;;;0.90;0.80;;;22.20;52.50;;;;;;222473;1268;22521;-54
2023/06/03 06:09:22;;;;;;;0.90;0.90;;;22.10;52.60;;;;;;222559;1268;22619;-50
2023/06/03 06:14:26;;;;;;;0.60;0.60;;;22.20;52.30;;;;;;222644;1268;22508;-52
2023/06/03 06:19:35;;;;;;;0.80;0.80;;;22.10;52.40;;;;;;222602;1268;24233;-50
2023/06/03 06:24:41;;;;;;;0.80;0.80;;;22.20;52.30;;;;;;222481;1268;22644;-52
2023/06/03 06:29:45;;;;;;;0.70;0.70;;;22.20;52.30;;;;;;222514;1266;22510;-51
2023/06/03 06:34:50;;;;;;;0.70;0.70;;;22.10;52.30;;;;;;222267;1269;25404;-51
2023/06/03 06:39:55;;;;;;;0.80;0.70;;;22.20;52.20;;;;;;222276;1269;22507;-53
2023/06/03 06:45:23;;;;;;;0.80;0.80;;;22.20;52.20;;;;;;222259;1256;24166;-52
2023/06/03 06:50:35;;;;;;;1.00;0.90;;;22.20;52.10;;;;;;221386;1274;23975;-50
2023/06/03 06:55:55;;;;;;;0.80;0.80;;;22.30;52.70;;;;;;221212;1265;22697;-50
2023/06/03 07:01:07;;;;;;;0.60;0.50;;;22.30;52.00;;;;;;221399;1275;23631;-52
2023/06/03 07:06:16;;;;;;;0.80;0.60;;;22.30;51.90;;;;;;221457;1263;24101;-52
2023/06/03 07:11:23;;;;;;;0.40;0.40;;;22.30;51.80;;;;;;222238;1269;25290;-51
2023/06/03 07:16:30;;;;;;;1.10;0.70;;;22.40;51.90;;;;;;222103;1269;23016;-53
2023/06/03 07:21:35;;;;;;;0.90;0.90;;;22.40;51.70;;;;;;222530;1267;25048;-52
2023/06/03 07:26:40;;;;;;;0.60;0.60;;;22.40;51.60;;;;;;222243;1269;24407;-52
2023/06/03 07:31:46;;;;;;;0.80;0.80;;;22.50;51.50;;;;;;222583;1262;22510;-55
2023/06/03 07:36:52;;;;;;;0.60;0.60;;;22.50;51.70;;;;;;222935;1268;22922;-51
2023/06/03 07:41:57;;;;;;;0.80;0.50;;;22.50;51.40;;;;;;222546;1268;23933;-53
2023/06/03 07:47:13;;;;;;;0.70;0.60;;;22.50;51.10;;;;;;222351;1256;24196;-56
2023/06/03 07:52:19;;;;;;;0.80;0.80;;;22.50;51.30;;;;;;222635;1268;23245;-52
2023/06/03 07:57:24;;;;;;;0.70;0.70;;;22.50;51.20;;;;;;222858;1252;23877;-50
2023/06/03 08:02:29;;;;;;;0.60;0.60;;;22.50;51.00;;;;;;222447;1268;23016;-51
2023/06/03 08:07:33;;;;;;;0.70;0.70;;;22.60;50.90;;;;;;222783;1268;25253;-50
2023/06/03 08:12:42;;;;;;;1.20;0.70;;;22.60;51.00;;;;;;222597;1252;24228;-57
2023/06/03 08:17:46;;;;;;;0.60;0.60;;;22.60;50.90;;;;;;222723;1265;25325;-54
2023/06/03 08:22:53;;;;;;;0.50;0.50;;;22.60;51.10;;;;;;222718;1263;22503;-54
2023/06/03 08:27:57;;;;;;;0.60;0.60;;;22.60;51.10;;;;;;222758;1263;24142;-50
2023/06/03 08:33:02;;;;;;;0.60;0.60;;;22.60;51.00;;;;;;222505;1269;24215;-53
2023/06/03 08:38:06;;;;;;;0.50;0.50;;;22.60;51.00;;;;;;222345;1269;25390;-52
2023/06/03 08:43:11;;;;;;;0.40;0.40;;;22.50;51.20;;;;;;222496;1269;24195;-50
2023/06/03 08:48:29;;;;;;;1.10;1.00;;;22.50;51.30;;;;;;222347;1269;25931;-57
2023/06/03 08:53:55;;;;;;;0.80;0.80;;;22.60;51.50;;;;;;222504;1269;22521;-52
2023/06/03 08:59:05;;;;;;;0.70;0.60;;;22.60;51.40;;;;;;222505;1269;22603;-57
2023/06/03 09:04:12;;;;;;;0.70;0.70;;;22.60;51.00;;;;;;222539;1269;23018;-50
2023/06/03 09:09:23;;;;;;;0.60;0.60;;;22.70;51.10;;;;;;222553;1260;22501;-55
2023/06/03 09:14:29;;;;;;;0.80;0.70;;;22.70;51.10;;;;;;222503;1257;23844;-52
2023/06/03 09:19:34;;;;;;;0.50;0.50;;;22.70;51.10;;;;;;222531;1269;23902;-52
2023/06/03 09:24:39;;;;;;;0.80;0.70;;;22.70;51.20;;;;;;222613;1269;23136;-53
2023/06/03 09:29:43;;;;;;;0.50;0.50;;;22.70;51.10;;;;;;222502;1268;25264;-52
2023/06/03 09:34:48;;;;;;;0.50;0.50;;;22.70;51.20;;;;;;222726;1268;22508;-53
2023/06/03 09:39:53;;;;;;;0.70;0.60;;;22.70;51.10;;;;;;222534;1264;22511;-51
2023/06/03 09:44:57;;;;;;;0.50;0.50;;;22.70;51.50;;;;;;222498;1268;22671;-52
2023/06/03 09:50:11;;;;;;;0.40;0.40;;;22.70;51.10;;;;;;222749;1245;24264;-53
2023/06/03 09:55:17;;;;;;;0.50;0.50;;;22.70;51.00;;;;;;223319;1266;22514;-49
2023/06/03 10:00:21;;;;;;;0.90;0.70;;;22.90;51.40;;;;;;223761;1268;22610;-47
2023/06/03 10:05:33;;;;;;;0.70;0.70;;;22.90;51.00;;;;;;223611;1268;23758;-47
2023/06/03 10:10:55;;;;;;;0.50;0.50;;;22.90;50.80;;;;;;223138;1262;24193;-53
2023/06/03 10:16:02;;;;;;;0.40;0.40;;;22.90;50.70;;;;;;222456;1268;25366;-52
2023/06/03 10:21:11;;;;;;;0.50;0.50;;;22.90;51.10;;;;;;222638;1268;22565;-53
2023/06/03 10:26:16;;;;;;;0.60;0.60;;;22.90;51.10;;;;;;222245;1254;22538;-52
2023/06/03 10:31:22;;;;;;;0.50;0.50;;;22.90;51.00;;;;;;222703;1263;22725;-52
2023/06/03 10:36:27;;;;;;;0.70;0.70;;;22.90;50.70;;;;;;222451;1269;22482;-51
2023/06/03 10:41:32;;;;;;;0.70;0.70;;;23.00;51.00;;;;;;222320;1267;26608;-53
2023/06/03 10:46:45;;;;;;;0.60;0.60;;;23.00;50.60;;;;;;222269;1269;23022;-52
2023/06/03 10:52:14;;;;;;;0.60;0.60;;;23.00;50.70;;;;;;222335;1268;25287;-55
2023/06/03 10:57:24;;;;;;;0.50;0.50;;;23.00;50.80;;;;;;222255;1267;22772;-52
2023/06/03 11:03:05;;;;;;;0.50;0.50;;;23.00;50.60;;;;;;222342;1269;26501;-52
2023/06/03 11:08:09;;;;;;;0.50;0.50;;;23.10;50.60;;;;;;222595;1253;22517;-51
2023/06/03 11:13:44;;;;;;;1.10;0.50;;;23.10;50.90;;;;;;221438;1273;22541;-53
2023/06/03 11:19:31;;;;;;;0.50;0.50;;;23.10;50.60;;;;;;221387;1270;22692;-51
2023/06/03 11:24:38;;;;;;;0.60;0.60;;;23.10;50.80;;;;;;221387;1273;22519;-54
2023/06/03 11:29:52;;;;;;;0.70;0.70;;;23.10;50.80;;;;;;221324;1267;22543;-52
2023/06/03 11:35:05;;;;;;;0.70;0.50;;;23.10;50.50;;;;;;221743;1268;23138;-50
2023/06/03 11:40:16;;;;;;;0.50;0.50;;;23.10;51.10;;;;;;221598;1272;25348;-50
2023/06/03 11:45:21;;;;;;;0.50;0.50;;;23.20;50.50;;;;;;222435;1268;24216;-54
2023/06/03 11:50:29;;;;;;;0.90;0.50;;;23.10;50.50;;;;;;222600;1268;25256;-53
2023/06/03 11:55:37;;;;;;;0.60;0.60;;;23.10;50.60;;;;;;222925;1265;25222;-54
2023/06/03 12:00:41;;;;;;;0.70;0.70;;;23.20;50.50;;;;;;222916;1268;22529;-51
2023/06/03 12:06:01;;;;;;;0.80;0.80;;;23.20;50.50;;;;;;222516;1268;22629;-52
2023/06/03 12:11:06;;;;;;;0.50;0.50;;;23.20;50.50;;;;;;222511;1268;24455;-51
2023/06/03 12:16:24;;;;;;;0.70;0.50;;;23.20;50.50;;;;;;222701;1244;22508;-52
2023/06/03 12:21:30;;;;;;;0.60;0.60;;;23.20;50.40;;;;;;222427;1268;24216;-51
2023/06/03 12:26:40;;;;;;;0.40;0.40;;;23.20;50.50;;;;;;222541;1267;23129;-53
2023/06/03 12:31:58;;;;;;;1.60;0.60;;;23.30;50.40;;;;;;222674;1268;24365;-50
2023/06/03 12:37:05;;;;;;;0.60;0.60;;;23.30;50.50;;;;;;222517;1268;24197;-52
2023/06/03 12:42:10;;;;;;;1.10;0.60;;;23.30;50.40;;;;;;222588;1268;24337;-52
2023/06/03 12:47:16;;;;;;;0.80;0.80;;;23.30;50.40;;;;;;222736;1268;24193;-52
2023/06/03 12:52:21;;;;;;;0.70;0.70;;;23.30;50.40;;;;;;222520;1268;25233;-56
2023/06/03 12:57:25;;;;;;;1.40;0.50;;;23.30;50.50;;;;;;222282;1265;24352;-52
2023/06/03 13:02:29;;;;;;;0.40;0.40;;;23.30;50.40;;;;;;222519;1268;22512;-53
2023/06/03 13:07:35;;;;;;;1.70;0.60;;;23.30;50.30;;;;;;222585;1268;23787;-50
2023/06/03 13:12:41;;;;;;;0.50;0.50;;;23.30;50.20;;;;;;222658;1268;23275;-52
2023/06/03 13:17:45;;;;;;;0.60;0.60;;;23.30;50.20;;;;;;222716;1268;22528;-51
2023/06/03 13:22:49;;;;;;;0.60;0.60;;;23.30;50.60;;;;;;222719;1268;24177;-53
2023/06/03 13:27:54;;;;;;;0.60;0.60;;;23.30;50.20;;;;;;222661;1268;23938;-52
2023/06/03 13:32:59;;;;;;;0.40;0.40;;;23.30;50.30;;;;;;222332;1268;22510;-52
2023/06/03 13:38:03;;;;;;;0.70;0.60;;;23.30;50.30;;;;;;222614;1268;26655;-55
2023/06/03 13:43:07;;;;;;;0.40;0.40;;;23.30;50.40;;;;;;222568;1268;22622;-51
2023/06/03 13:48:11;;;;;;;0.50;0.50;;;23.30;50.40;;;;;;222439;1266;22505;-55
2023/06/03 13:53:16;;;;;;;0.70;0.70;;;23.30;50.40;;;;;;222328;1268;22508;-52
2023/06/03 13:58:20;;;;;;;0.50;0.50;;;23.30;50.40;;;;;;222685;1262;25407;-50
2023/06/03 14:03:25;;;;;;;0.60;0.60;;;23.30;50.40;;;;;;222646;1268;25211;-52
2023/06/03 14:08:29;;;;;;;0.50;0.40;;;23.40;50.60;;;;;;222474;1268;25393;-54
2023/06/03 14:13:34;;;;;;;0.60;0.60;;;23.30;50.40;;;;;;222402;1268;349755;-51
2023/06/03 14:18:38;;;;;;;0.50;0.50;;;23.30;50.30;;;;;;222497;1268;22517;-54
2023/06/03 14:23:42;;;;;;;0.50;0.50;;;23.30;50.40;;;;;;222605;1268;24259;-53
2023/06/03 14:28:46;;;;;;;0.50;0.50;;;23.30;50.30;;;;;;222390;1268;22529;-53
2023/06/03 14:33:51;;;;;;;0.60;0.60;;;23.30;50.50;;;;;;222270;1268;24177;-52
2023/06/03 14:38:55;;;;;;;0.30;0.30;;;23.30;50.60;;;;;;222110;1269;22627;-56
2023/06/03 14:43:59;;;;;;;0.50;0.50;;;23.30;50.60;;;;;;222128;1269;22626;-53
2023/06/03 14:49:03;;;;;;;0.40;0.40;;;23.30;51.00;;;;;;222217;1268;24188;-54
2023/06/03 14:54:08;;;;;;;0.80;0.70;;;23.30;50.60;;;;;;222116;1269;22987;-52
2023/06/03 14:59:12;;;;;;;0.60;0.60;;;23.30;50.80;;;;;;222115;1269;24284;-54
2023/06/03 15:04:16;;;;;;;0.50;0.50;;;23.30;50.70;;;;;;222250;1269;22618;-53
2023/06/03 15:09:21;;;;;;;0.70;0.60;;;23.30;51.10;;;;;;222256;1267;22514;-54
2023/06/03 15:14:25;;;;;;;0.40;0.40;;;23.30;51.00;;;;;;222108;1269;22511;-51
2023/06/03 15:19:29;;;;;;;0.80;0.70;;;23.30;50.80;;;;;;222275;1269;22517;-52
2023/06/03 15:24:34;;;;;;;0.30;0.30;;;23.30;51.10;;;;;;222207;1269;25601;-53
2023/06/03 15:29:38;;;;;;;1.00;0.60;;;23.30;50.80;;;;;;222258;1269;25636;-50
2023/06/03 15:34:42;;;;;;;0.60;0.60;;;23.30;50.80;;;;;;222341;1269;22542;-56
2023/06/03 15:39:46;;;;;;;0.90;0.60;;;23.30;50.90;;;;;;222241;1267;22513;-53
2023/06/03 15:44:51;;;;;;;0.60;0.60;;;23.30;51.20;;;;;;222434;1269;24736;-54
2023/06/03 15:49:55;;;;;;;0.60;0.50;;;23.30;50.80;;;;;;222167;1269;22994;-50
2023/06/03 15:54:59;;;;;;;0.50;0.50;;;23.30;50.90;;;;;;222232;1269;22912;-51
2023/06/03 16:00:05;;;;;;;0.40;0.40;;;23.30;50.80;;;;;;222180;1269;25214;-53
2023/06/03 16:05:09;;;;;;;0.30;0.30;;;23.20;50.80;;;;;;222404;1247;24185;-52
2023/06/03 16:10:14;;;;;;;0.90;0.70;;;23.20;50.80;;;;;;222238;1269;25458;-52
2023/06/03 16:15:18;;;;;;;0.60;0.60;;;23.20;50.80;;;;;;222121;1269;26613;-53
2023/06/03 16:20:22;;;;;;;0.40;0.40;;;23.20;50.90;;;;;;222188;1269;24120;-51
2023/06/03 16:25:27;;;;;;;0.60;0.50;;;23.20;50.90;;;;;;222352;1269;24744;-52
2023/06/03 16:30:31;;;;;;;0.50;0.40;;;23.20;50.60;;;;;;222223;1269;24393;-51
2023/06/03 16:35:36;;;;;;;0.40;0.30;;;23.20;50.60;;;;;;222124;1269;22529;-53
2023/06/03 16:40:42;;;;;;;0.90;0.70;;;23.20;50.50;;;;;;222481;1269;24260;-51
2023/06/03 16:45:47;;;;;;;0.60;0.60;;;23.20;50.50;;;;;;222168;1268;22519;-47
2023/06/03 16:50:51;;;;;;;0.50;0.50;;;23.20;50.60;;;;;;222180;1269;22528;-50
2023/06/03 16:55:55;;;;;;;0.50;0.50;;;23.20;49.80;;;;;;222164;1269;25269;-50
2023/06/03 17:00:59;;;;;;;0.80;0.60;;;23.20;50.40;;;;;;222116;1269;24324;-52
2023/06/03 17:06:04;;;;;;;0.50;0.50;;;23.20;50.20;;;;;;222225;1269;22514;-56
2023/06/03 17:11:09;;;;;;;0.90;0.70;;;23.30;50.60;;;;;;222218;1269;22569;-55
2023/06/03 17:16:14;;;;;;;0.50;0.50;;;23.20;50.50;;;;;;222272;1269;25381;-54
2023/06/03 17:21:18;;;;;;;0.70;0.60;;;23.20;50.30;;;;;;222425;1269;22528;-53
2023/06/03 17:26:25;;;;;;;1.10;0.90;;;23.20;50.20;;;;;;222144;1268;22538;-51
2023/06/03 17:31:30;;;;;;;0.80;0.80;;;23.10;50.30;;;;;;222365;1269;24377;-53
2023/06/03 17:36:35;;;;;;;0.80;0.80;;;23.20;50.50;;;;;;222507;1269;22513;-52
2023/06/03 17:41:39;;;;;;;0.90;0.90;;;23.10;50.70;;;;;;222141;1268;24166;-55
2023/06/03 17:46:43;;;;;;;1.20;1.00;;;23.20;50.50;;;;;;222554;1269;22516;-54
2023/06/03 17:51:48;;;;;;;1.00;0.90;;;23.10;50.60;;;;;;222160;1269;25388;-52
2023/06/03 17:56:52;;;;;;;1.10;1.00;;;23.10;50.70;;;;;;222256;1268;22660;-50
2023/06/03 18:01:56;;;;;;;0.80;0.80;;;23.10;50.60;;;;;;222670;1268;22653;-50
2023/06/03 18:07:01;;;;;;;0.70;0.70;;;23.10;50.70;;;;;;222553;1268;22518;-55
2023/06/03 18:12:06;;;;;;;1.40;1.00;;;23.10;50.60;;;;;;222670;1266;22782;-52
2023/06/03 18:17:10;;;;;;;1.10;1.00;;;23.10;50.60;;;;;;222733;1266;22514;-53
2023/06/03 18:22:14;;;;;;;0.60;0.60;;;23.10;51.00;;;;;;222540;1256;24337;-54
2023/06/03 18:27:19;;;;;;;0.70;0.70;;;23.10;50.70;;;;;;222671;1268;24268;-48
2023/06/03 18:32:23;;;;;;;0.90;0.70;;;23.10;50.70;;;;;;222638;1266;22532;-50
2023/06/03 18:37:27;;;;;;;0.70;0.70;;;23.10;50.70;;;;;;222646;1268;25303;-52
2023/06/03 18:42:33;;;;;;;0.90;0.80;;;23.00;50.70;;;;;;222538;1268;22619;-49
2023/06/03 18:47:38;;;;;;;0.60;0.60;;;23.00;51.00;;;;;;222525;1268;24205;-52
2023/06/03 18:52:46;;;;;;;0.60;0.60;;;23.00;50.80;;;;;;222697;1268;22513;-52
2023/06/03 18:57:54;;;;;;;0.90;0.90;;;23.00;50.80;;;;;;222231;1269;22630;-53
2023/06/03 19:02:58;;;;;;;0.80;0.80;;;23.00;51.20;;;;;;222721;1268;22518;-51
2023/06/03 19:08:12;;;;;;;0.80;0.80;;;23.00;51.20;;;;;;222515;1268;25340;-51
2023/06/03 19:13:17;;;;;;;0.90;0.90;;;22.90;50.90;;;;;;222357;1268;22610;-52
2023/06/03 19:18:21;;;;;;;1.00;0.80;;;22.90;51.30;;;;;;222787;1268;22627;-52
2023/06/03 19:23:25;;;;;;;1.20;1.10;;;22.90;51.30;;;;;;222661;1268;25268;-51
2023/06/03 19:28:30;;;;;;;0.90;0.90;;;22.90;51.10;;;;;;222749;1263;22585;-52
2023/06/03 19:33:34;;;;;;;1.00;0.90;;;22.90;51.00;;;;;;222466;1269;25390;-52
2023/06/03 19:38:39;;;;;;;1.10;0.90;;;22.90;51.10;;;;;;222517;1269;24289;-52
2023/06/03 19:43:43;;;;;;;0.90;0.80;;;22.90;51.10;;;;;;222547;1269;25357;-50
2023/06/03 19:48:47;;;;;;;0.90;0.90;;;22.90;51.20;;;;;;222578;1248;22679;-50
2023/06/03 19:53:51;;;;;;;1.30;0.70;;;22.80;51.10;;;;;;222453;1269;22529;-50
2023/06/03 19:58:56;;;;;;;0.80;0.80;;;22.80;51.10;;;;;;222229;1269;22515;-54
2023/06/03 20:04:02;;;;;;;0.80;0.80;;;22.80;51.10;;;;;;222329;1268;26657;-54
2023/06/03 20:09:06;;;;;;;0.70;0.70;;;22.80;51.10;;;;;;222463;1269;22655;-53
2023/06/03 20:14:11;;;;;;;0.70;0.60;;;22.80;51.10;;;;;;222494;1268;22522;-51
2023/06/03 20:19:15;;;;;;;0.90;0.90;;;22.80;51.50;;;;;;222481;1268;22596;-51
2023/06/03 20:24:20;;;;;;;0.70;0.70;;;22.80;51.50;;;;;;222616;1267;22514;-53
2023/06/03 20:29:25;;;;;;;0.80;0.80;;;22.80;51.20;;;;;;222472;1260;22694;-56
2023/06/03 20:34:29;;;;;;;0.60;0.60;;;22.80;51.50;;;;;;222630;1268;24311;-52
2023/06/03 20:39:34;;;;;;;0.80;0.80;;;22.80;51.20;;;;;;222691;1268;23751;-52
2023/06/03 20:44:38;;;;;;;0.90;0.80;;;22.80;51.20;;;;;;222615;1268;22523;-53
2023/06/03 20:49:42;;;;;;;1.30;1.00;;;22.70;51.20;;;;;;222689;1266;24278;-52
2023/06/03 20:54:48;;;;;;;0.70;0.70;;;22.70;51.30;;;;;;222620;1268;22518;-52
2023/06/03 20:59:52;;;;;;;0.50;0.50;;;22.70;51.60;;;;;;222563;1268;22614;-52
2023/06/03 21:04:56;;;;;;;0.60;0.60;;;22.70;50.80;;;;;;222616;1268;22528;-51
2023/06/03 21:10:00;;;;;;;0.80;0.80;;;22.70;51.30;;;;;;222433;1268;22528;-53
2023/06/03 21:15:05;;;;;;;2.10;0.80;;;22.70;51.40;;;;;;222540;1268;25171;-53
2023/06/03 21:20:09;;;;;;;0.80;0.80;;;22.70;51.40;;;;;;222566;1268;22563;-53
2023/06/03 21:25:13;;;;;;;0.70;0.70;;;22.70;51.80;;;;;;222288;1268;24193;-52
2023/06/03 21:30:17;;;;;;;0.80;0.80;;;22.70;51.40;;;;;;222439;1268;22533;-52
2023/06/03 21:35:22;;;;;;;1.20;0.80;;;22.70;51.50;;;;;;222235;1269;22497;-53
2023/06/03 21:40:26;;;;;;;0.80;0.80;;;22.60;51.40;;;;;;222456;1269;22969;-55
2023/06/03 21:45:30;;;;;;;0.90;0.90;;;22.60;51.50;;;;;;222393;1269;24420;-52
2023/06/03 21:50:34;;;;;;;0.80;0.80;;;22.60;51.50;;;;;;222144;1269;23911;-53
2023/06/03 21:55:40;;;;;;;0.60;0.60;;;22.60;51.50;;;;;;222347;1269;22682;-54
2023/06/03 22:00:45;;;;;;;1.10;0.80;;;22.60;51.80;;;;;;222418;1268;22648;-52
2023/06/03 22:05:50;;;;;;;0.70;0.70;;;22.60;51.80;;;;;;222278;1268;23285;-52
2023/06/03 22:10:54;;;;;;;1.00;0.90;;;22.60;51.20;;;;;;222336;1268;22616;-55
2023/06/03 22:15:58;;;;;;;0.60;0.60;;;22.60;51.10;;;;;;222518;1267;22530;-52
2023/06/03 22:21:03;;;;;;;0.70;0.70;;;22.60;51.10;;;;;;222380;1262;24218;-52
2023/06/03 22:26:07;;;;;;;0.90;0.90;;;22.60;51.10;;;;;;222526;1268;22619;-54
2023/06/03 22:31:11;;;;;;;1.00;0.70;;;22.60;51.20;;;;;;222502;1268;23942;-51
2023/06/03 22:36:15;;;;;;;0.70;0.50;;;22.60;51.20;;;;;;222207;1268;25283;-55
2023/06/03 22:41:20;;;;;;;0.80;0.80;;;22.60;51.30;;;;;;222453;1268;22588;-55
2023/06/03 22:46:24;;;;;;;0.60;0.60;;;22.60;51.20;;;;;;222496;1266;23011;-53
2023/06/03 22:51:30;;;;;;;1.00;0.90;;;22.60;51.20;;;;;;222618;1268;22525;-54
2023/06/03 22:56:34;;;;;;;0.70;0.70;;;22.60;51.50;;;;;;222339;1268;25674;-53
2023/06/03 23:01:38;;;;;;;1.00;0.80;;;22.60;51.20;;;;;;222297;1268;22506;-53
2023/06/03 23:06:42;;;;;;;0.70;0.70;;;22.50;51.20;;;;;;222356;1268;23927;-51
2023/06/03 23:11:48;;;;;;;0.60;0.60;;;22.60;51.20;;;;;;222594;1268;24089;-55
2023/06/03 23:16:52;;;;;;;0.80;0.80;;;22.50;51.10;;;;;;222431;1268;24236;-53
2023/06/03 23:21:56;;;;;;;1.70;0.80;;;22.50;51.10;;;;;;222656;1268;24190;-52
2023/06/03 23:27:00;;;;;;;0.80;0.80;;;22.50;50.90;;;;;;222311;1268;23930;-52
2023/06/03 23:32:06;;;;;;;0.70;0.60;;;22.60;50.90;;;;;;222238;1257;22525;-51
2023/06/03 23:37:10;;;;;;;0.90;0.90;;;22.50;51.30;;;;;;222219;1269;22534;-57
2023/06/03 23:42:14;;;;;;;0.80;0.80;;;22.50;50.90;;;;;;222242;1266;25306;-53
2023/06/03 23:47:21;;;;;;;0.60;0.60;;;22.50;51.00;;;;;;222303;1269;22518;-55
2023/06/03 23:52:25;;;;;;;0.80;0.80;;;22.50;50.90;;;;;;222337;1269;24232;-55
2023/06/03 23:57:29;;;;;;;0.70;0.70;;;22.50;50.90;;;;;;222063;1248;22515;-52
